createdAt,value
2018-03-29T00:00:54.772Z,99.99
2018-03-29T00:01:54.926Z,99.99
2018-03-29T00:02:55.089Z,99.99
2018-03-29T00:03:55.248Z,99.99
2018-03-29T00:04:55.405Z,99.99
2018-03-29T00:05:55.574Z,99.99
2018-03-29T00:06:55.737Z,99.99
2018-03-29T00:07:55.891Z,99.99
2018-03-29T00:08:56.050Z,99.99
2018-03-29T00:09:56.210Z,99.99
2018-03-29T00:10:56.371Z,99.99
2018-03-29T00:11:56.526Z,99.99
2018-03-29T00:12:56.690Z,99.99
2018-03-29T00:13:56.863Z,99.99
2018-03-29T00:14:57.022Z,99.99
2018-03-29T00:15:57.181Z,99.99
2018-03-29T00:16:57.342Z,99.99
2018-03-29T00:17:57.495Z,99.99
2018-03-29T00:18:57.662Z,99.99
2018-03-29T00:19:57.832Z,99.99
2018-03-29T00:20:58.050Z,99.99
2018-03-29T00:21:58.096Z,99.99
2018-03-29T00:22:58.284Z,99.99
2018-03-29T00:23:58.444Z,99.99
2018-03-29T00:24:58.633Z,99.99
2018-03-29T00:25:58.779Z,99.99
2018-03-29T00:26:58.948Z,99.99
2018-03-29T00:27:59.106Z,99.99
2018-03-29T00:28:59.241Z,99.99
2018-03-29T00:29:59.386Z,99.99
2018-03-29T00:30:59.563Z,99.54
2018-03-29T00:31:59.729Z,99.99
2018-03-29T00:32:59.865Z,98.78
2018-03-29T00:34:00.059Z,99.35
2018-03-29T00:35:00.181Z,99.99
2018-03-29T00:36:00.450Z,99.99
2018-03-29T00:37:00.492Z,99.63
2018-03-29T00:38:00.645Z,98.59
2018-03-29T00:39:00.800Z,98.59
2018-03-29T00:40:00.959Z,98.78
2018-03-29T00:41:01.111Z,98.87
2018-03-29T00:42:01.272Z,99.16
2018-03-29T00:43:01.440Z,98.97
2018-03-29T00:44:01.582Z,98.11
2018-03-29T00:45:01.781Z,97.74
2018-03-29T00:46:01.904Z,98.40
2018-03-29T00:47:02.083Z,98.11
2018-03-29T00:48:02.216Z,98.02
2018-03-29T00:49:02.354Z,98.97
2018-03-29T00:50:02.511Z,98.21
2018-03-29T00:51:02.680Z,97.55
2018-03-29T00:52:02.834Z,97.74
2018-03-29T00:53:02.966Z,98.11
2018-03-29T00:54:03.132Z,97.74
2018-03-29T00:55:03.277Z,96.88
2018-03-29T00:56:03.458Z,97.45
2018-03-29T00:57:03.644Z,96.69
2018-03-29T00:58:03.757Z,96.50
2018-03-29T00:59:03.915Z,97.07
2018-03-29T01:00:04.065Z,97.45
2018-03-29T01:01:04.223Z,97.64
2018-03-29T01:02:04.387Z,97.74
2018-03-29T01:03:04.530Z,97.26
2018-03-29T01:04:04.688Z,96.12
2018-03-29T01:05:04.831Z,97.26
2018-03-29T01:06:04.995Z,96.97
2018-03-29T01:07:05.151Z,97.07
2018-03-29T01:08:05.317Z,96.69
2018-03-29T01:09:05.501Z,97.17
2018-03-29T01:10:05.661Z,97.26
2018-03-29T01:11:05.786Z,96.45
2018-03-29T01:12:05.979Z,96.55
2018-03-29T01:13:06.236Z,97.07
2018-03-29T01:14:06.322Z,96.97
2018-03-29T01:15:06.422Z,97.02
2018-03-29T01:16:06.693Z,97.12
2018-03-29T01:17:06.782Z,97.21
2018-03-29T01:18:06.946Z,97.21
2018-03-29T01:19:07.138Z,97.97
2018-03-29T01:20:07.331Z,98.73
2018-03-29T01:21:07.452Z,98.73
2018-03-29T01:22:07.673Z,98.82
2018-03-29T01:23:08.426Z,98.35
2018-03-29T01:24:07.941Z,98.54
2018-03-29T01:25:08.010Z,99.39
2018-03-29T01:26:08.172Z,99.77
2018-03-29T01:27:08.611Z,98.73
2018-03-29T01:28:08.644Z,99.11
2018-03-29T01:29:08.735Z,98.92
2018-03-29T01:30:08.892Z,97.97
2018-03-29T01:32:03.223Z,98.16
2018-03-29T01:33:02.355Z,98.25
2018-03-29T01:34:02.533Z,97.97
2018-03-29T01:35:02.825Z,98.44
2018-03-29T01:38:29.049Z,97.02
2018-03-29T01:39:29.174Z,97.21
2018-03-29T01:40:29.341Z,97.50
2018-03-29T01:41:29.528Z,97.59
2018-03-29T01:42:29.655Z,97.78
2018-03-29T01:43:29.824Z,97.69
2018-03-29T01:44:30.017Z,97.97
2018-03-29T01:45:30.145Z,98.73
2018-03-29T01:46:30.326Z,98.44
2018-03-29T01:47:30.629Z,98.44
2018-03-29T01:48:30.723Z,98.54
2018-03-29T01:49:31.024Z,99.11
2018-03-29T01:50:31.010Z,98.82
2018-03-29T01:51:31.382Z,98.35
2018-03-29T01:52:31.408Z,97.97
2018-03-29T01:53:31.596Z,97.69
2018-03-29T01:54:32.005Z,98.44
2018-03-29T01:55:32.062Z,98.73
2018-03-29T01:56:32.178Z,98.54
2018-03-29T01:57:32.356Z,99.39
2018-03-29T01:58:32.446Z,99.87
2018-03-29T01:59:32.627Z,99.58
2018-03-29T02:00:32.766Z,99.68
2018-03-29T02:01:33.090Z,99.68
2018-03-29T02:02:33.182Z,98.82
2018-03-29T02:03:33.373Z,98.44
2018-03-29T02:04:33.533Z,98.16
2018-03-29T02:05:33.796Z,98.16
2018-03-29T02:06:33.947Z,98.73
2018-03-29T02:07:34.123Z,98.44
2018-03-29T02:08:34.100Z,99.39
2018-03-29T02:09:34.429Z,99.01
2018-03-29T02:10:34.525Z,98.92
2018-03-29T02:11:34.643Z,99.99
2018-03-29T02:12:34.787Z,99.39
2018-03-29T02:13:35.023Z,99.49
2018-03-29T02:14:35.322Z,99.06
2018-03-29T02:15:35.340Z,99.49
2018-03-29T02:16:35.671Z,99.25
2018-03-29T02:17:35.713Z,98.77
2018-03-29T02:18:35.968Z,98.96
2018-03-29T02:19:36.139Z,99.53
2018-03-29T02:20:37.256Z,99.58
2018-03-29T02:21:36.415Z,98.96
2018-03-29T02:22:36.635Z,98.73
2018-03-29T02:23:36.861Z,98.54
2018-03-29T02:24:36.905Z,98.82
2018-03-29T02:25:37.228Z,98.25
2018-03-29T02:26:37.535Z,98.11
2018-03-29T02:27:37.353Z,98.21
2018-03-29T02:28:37.495Z,98.16
2018-03-29T02:29:37.638Z,97.64
2018-03-29T02:30:38.615Z,97.92
2018-03-29T02:31:38.181Z,98.02
2018-03-29T02:32:38.230Z,98.30
2018-03-29T02:33:38.538Z,97.35
2018-03-29T02:34:38.556Z,97.92
2018-03-29T02:35:38.632Z,98.16
2018-03-29T02:36:38.814Z,98.73
2018-03-29T02:37:38.955Z,97.97
2018-03-29T02:38:40.224Z,97.40
2018-03-29T02:39:39.287Z,97.88
2018-03-29T02:40:39.494Z,98.07
2018-03-29T02:41:39.554Z,97.69
2018-03-29T02:42:39.828Z,96.97
2018-03-29T02:43:40.030Z,97.31
2018-03-29T02:44:40.135Z,96.73
2018-03-29T02:45:40.356Z,96.31
2018-03-29T02:46:40.437Z,96.50
2018-03-29T02:47:40.704Z,96.78
2018-03-29T02:48:40.893Z,96.50
2018-03-29T02:49:40.931Z,96.97
2018-03-29T02:50:41.184Z,97.35
2018-03-29T02:51:41.285Z,97.16
2018-03-29T02:52:41.409Z,97.16
2018-03-29T02:53:41.626Z,96.78
2018-03-29T02:54:41.818Z,97.45
2018-03-29T02:55:42.150Z,97.45
2018-03-29T02:56:42.673Z,97.54
2018-03-29T02:57:42.229Z,98.02
2018-03-29T02:58:42.409Z,98.11
2018-03-29T02:59:42.588Z,97.16
2018-03-29T03:00:42.664Z,97.16
2018-03-29T03:01:42.936Z,97.64
2018-03-29T03:02:43.393Z,98.30
2018-03-29T03:03:43.119Z,97.73
2018-03-29T03:04:43.395Z,98.02
2018-03-29T03:05:43.477Z,97.07
2018-03-29T03:06:43.612Z,97.26
2018-03-29T03:07:43.777Z,96.69
2018-03-29T03:08:43.983Z,96.12
2018-03-29T03:09:44.254Z,96.69
2018-03-29T03:10:44.318Z,96.97
2018-03-29T03:11:44.478Z,97.26
2018-03-29T03:12:44.730Z,96.59
2018-03-29T03:13:44.800Z,96.88
2018-03-29T03:14:45.109Z,96.22
2018-03-29T03:15:45.294Z,96.50
2018-03-29T03:16:45.211Z,96.31
2018-03-29T03:17:46.566Z,96.41
2018-03-29T03:18:46.839Z,96.12
2018-03-29T03:19:45.800Z,96.59
2018-03-29T03:20:46.181Z,96.59
2018-03-29T03:21:46.231Z,96.31
2018-03-29T03:22:46.582Z,96.41
2018-03-29T03:23:46.447Z,97.45
2018-03-29T03:24:46.730Z,97.16
2018-03-29T03:25:46.768Z,96.59
2018-03-29T03:26:46.977Z,97.26
2018-03-29T03:27:47.095Z,96.88
2018-03-29T03:28:47.406Z,97.16
2018-03-29T03:29:47.586Z,97.35
2018-03-29T03:30:47.635Z,97.16
2018-03-29T03:31:47.819Z,96.59
2018-03-29T03:32:48.243Z,96.50
2018-03-29T03:33:48.109Z,97.16
2018-03-29T03:34:48.245Z,96.41
2018-03-29T03:35:48.567Z,96.31
2018-03-29T03:36:48.699Z,96.41
2018-03-29T03:37:48.690Z,97.07
2018-03-29T03:38:48.889Z,97.16
2018-03-29T03:39:49.064Z,97.26
2018-03-29T03:40:49.322Z,96.88
2018-03-29T03:41:49.499Z,96.97
2018-03-29T03:42:49.682Z,96.97
2018-03-29T03:43:50.878Z,96.97
2018-03-29T03:44:51.213Z,97.54
2018-03-29T03:45:51.273Z,96.12
2018-03-29T03:46:51.362Z,96.31
2018-03-29T03:47:51.671Z,96.59
2018-03-29T03:48:51.832Z,96.88
2018-03-29T03:49:51.806Z,96.97
2018-03-29T03:50:52.041Z,97.73
2018-03-29T03:51:51.424Z,97.54
2018-03-29T03:52:51.566Z,97.26
2018-03-29T03:53:51.703Z,96.97
2018-03-29T03:54:51.936Z,96.41
2018-03-29T03:55:52.209Z,97.26
2018-03-29T03:56:52.278Z,96.45
2018-03-29T03:57:52.349Z,96.45
2018-03-29T03:58:52.546Z,96.03
2018-03-29T03:59:52.787Z,96.50
2018-03-29T04:00:52.803Z,96.31
2018-03-29T04:01:53.010Z,96.50
2018-03-29T04:02:52.906Z,95.98
2018-03-29T04:03:53.228Z,96.36
2018-03-29T04:04:53.183Z,96.03
2018-03-29T04:05:53.384Z,95.60
2018-03-29T04:06:53.525Z,95.26
2018-03-29T04:07:53.610Z,95.36
2018-03-29T04:08:54.589Z,95.26
2018-03-29T04:09:54.113Z,96.03
2018-03-29T04:10:54.278Z,96.78
2018-03-29T04:11:54.426Z,96.31
2018-03-29T04:12:54.545Z,96.12
2018-03-29T04:13:54.739Z,96.41
2018-03-29T04:14:54.909Z,96.03
2018-03-29T04:15:55.132Z,96.03
2018-03-29T04:16:55.331Z,96.31
2018-03-29T04:17:55.464Z,96.22
2018-03-29T04:18:55.682Z,96.50
2018-03-29T04:19:55.765Z,96.69
2018-03-29T04:20:55.919Z,96.41
2018-03-29T04:21:56.119Z,95.50
2018-03-29T04:22:56.236Z,95.55
2018-03-29T04:23:57.149Z,95.17
2018-03-29T04:24:56.648Z,96.03
2018-03-29T04:25:56.848Z,96.03
2018-03-29T04:26:56.907Z,95.65
2018-03-29T04:27:56.948Z,95.93
2018-03-29T04:28:57.089Z,95.26
2018-03-29T04:29:57.283Z,95.65
2018-03-29T04:30:57.381Z,95.26
2018-03-29T04:31:57.675Z,95.55
2018-03-29T04:32:57.717Z,95.45
2018-03-29T04:33:57.815Z,95.88
2018-03-29T04:34:58.083Z,95.31
2018-03-29T04:35:58.194Z,95.60
2018-03-29T04:36:58.532Z,94.93
2018-03-29T04:37:58.512Z,94.70
2018-03-29T04:38:58.843Z,94.79
2018-03-29T04:39:58.902Z,94.84
2018-03-29T04:40:59.080Z,94.74
2018-03-29T04:41:59.557Z,95.22
2018-03-29T04:42:59.386Z,95.36
2018-03-29T04:43:59.559Z,95.84
2018-03-29T04:44:59.696Z,94.42
2018-03-29T04:46:01.686Z,94.89
2018-03-29T04:46:59.871Z,95.45
2018-03-29T04:48:00.183Z,95.36
2018-03-29T04:49:00.511Z,95.36
2018-03-29T04:50:00.435Z,95.55
2018-03-29T04:51:00.710Z,95.45
2018-03-29T04:52:00.783Z,94.51
2018-03-29T04:53:01.035Z,94.89
2018-03-29T04:54:01.281Z,95.07
2018-03-29T04:55:01.311Z,95.74
2018-03-29T04:56:01.423Z,94.79
2018-03-29T04:57:01.812Z,95.17
2018-03-29T04:58:01.924Z,95.45
2018-03-29T04:59:02.013Z,95.65
2018-03-29T05:00:02.042Z,95.55
2018-03-29T05:01:02.217Z,95.36
2018-03-29T05:02:02.511Z,95.36
2018-03-29T05:03:02.501Z,95.55
2018-03-29T05:04:02.657Z,94.79
2018-03-29T05:05:03.112Z,94.70
2018-03-29T05:06:03.011Z,95.65
2018-03-29T05:07:03.224Z,94.42
2018-03-29T05:08:03.400Z,94.89
2018-03-29T05:09:03.718Z,94.42
2018-03-29T05:10:03.642Z,95.07
2018-03-29T05:11:03.751Z,95.17
2018-03-29T05:12:03.950Z,95.45
2018-03-29T05:13:04.193Z,94.89
2018-03-29T05:14:04.339Z,94.51
2018-03-29T05:15:04.496Z,94.70
2018-03-29T05:16:04.719Z,95.17
2018-03-29T05:17:04.899Z,94.70
2018-03-29T05:18:05.059Z,94.98
2018-03-29T05:19:05.172Z,94.79
2018-03-29T05:20:05.277Z,94.89
2018-03-29T05:21:05.490Z,95.45
2018-03-29T05:22:05.596Z,95.65
2018-03-29T05:23:05.777Z,94.93
2018-03-29T05:24:06.070Z,94.70
2018-03-29T05:25:06.122Z,93.94
2018-03-29T05:26:07.048Z,94.23
2018-03-29T05:27:06.560Z,94.70
2018-03-29T05:28:06.664Z,94.89
2018-03-29T05:29:06.829Z,94.74
2018-03-29T05:30:06.949Z,93.89
2018-03-29T05:31:07.093Z,94.79
2018-03-29T05:32:07.486Z,94.04
2018-03-29T05:33:07.504Z,93.65
2018-03-29T05:34:07.618Z,93.80
2018-03-29T05:35:07.807Z,94.18
2018-03-29T05:36:08.012Z,94.37
2018-03-29T05:37:08.158Z,94.37
2018-03-29T05:38:08.458Z,93.80
2018-03-29T05:39:08.509Z,93.61
2018-03-29T05:40:08.642Z,93.99
2018-03-29T05:41:08.883Z,94.08
2018-03-29T05:42:08.999Z,93.89
2018-03-29T05:43:09.195Z,93.70
2018-03-29T05:44:09.392Z,94.04
2018-03-29T05:45:09.601Z,94.56
2018-03-29T05:46:09.826Z,94.93
2018-03-29T05:47:09.810Z,94.46
2018-03-29T05:48:10.081Z,94.23
2018-03-29T05:49:10.251Z,94.37
2018-03-29T05:50:10.434Z,94.56
2018-03-29T05:51:10.536Z,94.27
2018-03-29T05:52:10.797Z,93.89
2018-03-29T05:53:10.920Z,93.61
2018-03-29T05:54:11.167Z,93.70
2018-03-29T05:55:11.298Z,93.32
2018-03-29T05:56:11.398Z,93.51
2018-03-29T05:57:11.618Z,93.80
2018-03-29T05:58:11.824Z,94.04
2018-03-29T05:59:11.953Z,93.65
2018-03-29T06:00:12.063Z,93.99
2018-03-29T06:01:12.294Z,93.32
2018-03-29T06:02:12.431Z,92.66
2018-03-29T06:03:12.686Z,92.76
2018-03-29T06:04:12.757Z,93.04
2018-03-29T06:05:13.608Z,92.57
2018-03-29T06:06:13.110Z,92.47
2018-03-29T06:07:13.268Z,92.38
2018-03-29T06:08:13.506Z,92.09
2018-03-29T06:09:13.656Z,91.99
2018-03-29T06:10:13.861Z,90.95
2018-03-29T06:11:14.085Z,91.05
2018-03-29T06:12:14.171Z,90.29
2018-03-29T06:13:14.288Z,90.38
2018-03-29T06:14:14.627Z,90.57
2018-03-29T06:15:14.722Z,91.05
2018-03-29T06:16:14.937Z,91.33
2018-03-29T06:17:15.100Z,91.24
2018-03-29T06:18:15.163Z,90.76
2018-03-29T06:19:15.351Z,90.29
2018-03-29T06:20:15.485Z,90.19
2018-03-29T06:21:15.783Z,90.57
2018-03-29T06:22:15.934Z,90.33
2018-03-29T06:23:16.160Z,90.48
2018-03-29T06:24:16.274Z,91.05
2018-03-29T06:25:16.473Z,90.81
2018-03-29T06:26:16.501Z,90.71
2018-03-29T06:27:16.902Z,90.14
2018-03-29T06:28:16.906Z,90.33
2018-03-29T06:29:17.072Z,90.05
2018-03-29T06:30:17.283Z,88.91
2018-03-29T06:31:17.434Z,90.00
2018-03-29T06:32:17.614Z,90.62
2018-03-29T06:33:18.674Z,89.72
2018-03-29T06:34:17.910Z,89.20
2018-03-29T06:35:18.096Z,89.20
2018-03-29T06:36:18.365Z,89.48
2018-03-29T06:37:18.453Z,89.76
2018-03-29T06:38:18.709Z,89.86
2018-03-29T06:39:18.842Z,89.95
2018-03-29T06:40:18.939Z,89.20
2018-03-29T06:41:19.129Z,88.53
2018-03-29T06:42:19.327Z,88.81
2018-03-29T06:43:19.449Z,88.81
2018-03-29T06:44:19.715Z,89.10
2018-03-29T06:45:19.843Z,89.39
2018-03-29T06:46:20.601Z,88.91
2018-03-29T06:47:20.207Z,89.58
2018-03-29T06:48:20.278Z,89.39
2018-03-29T06:49:20.495Z,89.58
2018-03-29T06:50:20.727Z,89.39
2018-03-29T06:51:20.981Z,90.24
2018-03-29T06:52:21.182Z,90.24
2018-03-29T06:53:21.456Z,90.90
2018-03-29T06:54:21.396Z,90.90
2018-03-29T06:55:21.534Z,90.81
2018-03-29T06:56:21.698Z,90.14
2018-03-29T06:57:21.879Z,89.10
2018-03-29T06:58:22.118Z,89.86
2018-03-29T06:59:22.227Z,90.33
2018-03-29T07:00:22.448Z,90.14
2018-03-29T07:01:22.562Z,90.43
2018-03-29T07:02:22.705Z,90.24
2018-03-29T07:03:22.984Z,90.43
2018-03-29T07:04:23.048Z,89.00
2018-03-29T07:05:23.428Z,89.39
2018-03-29T07:06:23.562Z,89.39
2018-03-29T07:07:23.522Z,89.29
2018-03-29T07:08:23.726Z,88.53
2018-03-29T07:09:24.045Z,89.67
2018-03-29T07:10:24.012Z,89.39
2018-03-29T07:11:24.261Z,88.39
2018-03-29T07:12:24.491Z,88.57
2018-03-29T07:13:24.590Z,87.72
2018-03-29T07:14:24.791Z,86.34
2018-03-29T07:15:25.113Z,85.58
2018-03-29T07:16:25.299Z,85.86
2018-03-29T07:17:25.397Z,84.29
2018-03-29T07:18:25.837Z,83.72
2018-03-29T07:19:25.903Z,84.29
2018-03-29T07:20:26.010Z,83.15
2018-03-29T07:21:26.100Z,82.64
2018-03-29T07:22:26.250Z,83.06
2018-03-29T07:23:26.846Z,84.39
2018-03-29T07:24:26.708Z,84.63
2018-03-29T07:25:26.712Z,83.78
2018-03-29T07:26:26.909Z,84.25
2018-03-29T07:27:27.266Z,84.25
2018-03-29T07:28:27.190Z,84.63
2018-03-29T07:29:27.523Z,84.16
2018-03-29T07:30:27.678Z,84.53
2018-03-29T07:31:27.772Z,85.01
2018-03-29T07:32:27.989Z,84.63
2018-03-29T07:33:28.173Z,84.16
2018-03-29T07:34:28.650Z,83.87
2018-03-29T07:35:28.673Z,85.20
2018-03-29T07:36:28.740Z,83.97
2018-03-29T07:37:28.858Z,83.20
2018-03-29T07:38:29.114Z,83.20
2018-03-29T07:39:29.156Z,83.39
2018-03-29T07:40:29.439Z,82.26
2018-03-29T07:41:29.352Z,83.78
2018-03-29T07:42:29.590Z,82.64
2018-03-29T07:43:29.708Z,82.29
2018-03-29T07:44:30.047Z,82.01
2018-03-29T07:45:30.802Z,82.26
2018-03-29T07:46:30.226Z,81.63
2018-03-29T07:47:30.464Z,81.06
2018-03-29T07:48:30.637Z,81.16
2018-03-29T07:49:30.701Z,80.96
2018-03-29T07:50:30.857Z,81.06
2018-03-29T07:51:30.844Z,82.20
2018-03-29T07:52:31.360Z,81.78
2018-03-29T07:53:31.309Z,82.49
2018-03-29T07:54:31.974Z,81.25
2018-03-29T07:55:31.876Z,80.11
2018-03-29T07:56:32.335Z,80.40
2018-03-29T07:57:31.993Z,80.77
2018-03-29T07:58:32.093Z,79.73
2018-03-29T07:59:32.275Z,80.02
2018-03-29T08:00:32.590Z,80.21
2018-03-29T08:01:32.637Z,80.49
2018-03-29T08:02:32.905Z,81.06
2018-03-29T08:03:33.080Z,80.68
2018-03-29T08:04:33.144Z,79.92
2018-03-29T08:05:33.415Z,79.68
2018-03-29T08:06:33.529Z,78.91
2018-03-29T08:07:33.798Z,78.72
2018-03-29T08:08:33.889Z,75.72
2018-03-29T08:09:34.149Z,74.96
2018-03-29T08:10:34.235Z,75.09
2018-03-29T08:11:34.403Z,74.10
2018-03-29T08:12:34.688Z,73.10
2018-03-29T08:13:34.917Z,72.62
2018-03-29T08:14:34.976Z,72.71
2018-03-29T08:15:35.214Z,71.57
2018-03-29T08:16:35.281Z,71.95
2018-03-29T08:17:35.488Z,73.32
2018-03-29T08:18:35.728Z,71.80
2018-03-29T08:19:35.861Z,70.47
2018-03-29T08:20:36.078Z,69.99
2018-03-29T08:21:36.323Z,70.94
2018-03-29T08:22:36.668Z,69.48
2018-03-29T08:23:36.610Z,69.48
2018-03-29T08:24:36.783Z,69.00
2018-03-29T08:25:36.987Z,69.57
2018-03-29T08:26:37.044Z,70.01
2018-03-29T08:27:37.255Z,70.20
2018-03-29T08:28:38.332Z,70.01
2018-03-29T08:29:38.260Z,69.79
2018-03-29T08:30:38.147Z,72.35
2018-03-29T08:31:38.348Z,73.11
2018-03-29T08:32:38.193Z,73.69
2018-03-29T08:33:38.966Z,74.03
2018-03-29T08:34:38.732Z,73.27
2018-03-29T08:35:38.970Z,74.60
2018-03-29T08:36:38.729Z,74.79
2018-03-29T08:37:38.826Z,74.12
2018-03-29T08:38:39.029Z,74.22
2018-03-29T08:39:41.996Z,74.41
2018-03-29T08:40:39.511Z,75.07
2018-03-29T08:41:40.318Z,74.79
2018-03-29T08:42:39.834Z,75.02
2018-03-29T08:43:39.967Z,73.02
2018-03-29T08:44:40.047Z,72.83
2018-03-29T08:45:40.134Z,72.92
2018-03-29T08:46:40.323Z,72.16
2018-03-29T08:47:40.586Z,72.45
2018-03-29T08:48:40.676Z,73.11
2018-03-29T08:49:40.823Z,72.55
2018-03-29T08:50:41.368Z,72.45
2018-03-29T08:51:41.522Z,71.88
2018-03-29T08:52:41.553Z,72.83
2018-03-29T08:53:41.860Z,73.97
2018-03-29T08:54:41.610Z,73.02
2018-03-29T08:55:41.831Z,72.45
2018-03-29T08:56:41.939Z,71.69
2018-03-29T08:57:42.156Z,72.35
2018-03-29T08:58:42.445Z,72.26
2018-03-29T08:59:42.578Z,73.02
2018-03-29T09:00:42.652Z,73.02
2018-03-29T09:01:43.211Z,72.92
2018-03-29T09:02:43.068Z,73.21
2018-03-29T09:03:43.260Z,73.02
2018-03-29T09:04:43.220Z,72.35
2018-03-29T09:05:43.351Z,73.11
2018-03-29T09:06:43.442Z,71.78
2018-03-29T09:07:43.586Z,72.45
2018-03-29T09:08:43.826Z,70.26
2018-03-29T09:09:43.917Z,70.17
2018-03-29T09:10:44.233Z,69.98
2018-03-29T09:11:44.326Z,69.88
2018-03-29T09:12:44.506Z,70.07
2018-03-29T09:13:44.655Z,69.88
2018-03-29T09:14:45.076Z,71.02
2018-03-29T09:15:45.260Z,71.59
2018-03-29T09:16:45.070Z,71.78
2018-03-29T09:17:45.372Z,73.11
2018-03-29T09:19:37.559Z,73.69
2018-03-29T09:23:32.551Z,74.16
2018-03-29T09:24:32.088Z,74.16
2018-03-29T09:27:17.852Z,75.30
2018-03-29T09:28:16.837Z,74.16
2018-03-29T09:30:23.886Z,74.77
2018-03-29T09:31:40.293Z,73.06
2018-03-29T09:32:17.370Z,72.96
2018-03-29T09:33:24.406Z,70.68
2018-03-29T09:34:17.930Z,71.09
2018-03-29T09:35:20.576Z,70.97
2018-03-29T09:36:17.740Z,70.97
2018-03-29T09:37:23.052Z,71.44
2018-03-29T09:39:19.745Z,70.10
2018-03-29T09:40:19.392Z,70.05
2018-03-29T09:41:21.237Z,69.29
2018-03-29T09:42:20.387Z,69.07
2018-03-29T09:43:20.219Z,66.88
2018-03-29T09:44:20.899Z,66.94
2018-03-29T09:45:19.975Z,68.46
2018-03-29T09:46:20.039Z,68.05
2018-03-29T09:47:23.339Z,67.23
2018-03-29T09:49:22.534Z,65.00
2018-03-29T09:51:20.315Z,63.13
2018-03-29T09:52:21.596Z,63.07
2018-03-29T09:53:20.916Z,63.51
2018-03-29T09:54:20.788Z,64.47
2018-03-29T09:55:22.261Z,63.92
2018-03-29T09:56:25.670Z,64.21
2018-03-29T09:57:21.245Z,62.12
2018-03-29T09:58:21.661Z,64.31
2018-03-29T09:59:21.604Z,65.03
2018-03-29T10:00:22.382Z,65.42
2018-03-29T10:01:21.954Z,65.89
2018-03-29T10:02:22.227Z,67.10
2018-03-29T10:03:22.302Z,67.86
2018-03-29T10:04:22.601Z,70.33
2018-03-29T10:05:22.614Z,68.90
2018-03-29T10:06:22.905Z,68.77
2018-03-29T10:07:22.936Z,69.10
2018-03-29T10:08:23.453Z,69.85
2018-03-29T10:09:23.240Z,69.57
2018-03-29T10:10:23.624Z,69.19
2018-03-29T10:11:23.541Z,69.23
2018-03-29T10:13:58.469Z,67.29
2018-03-29T10:14:58.553Z,68.62
2018-03-29T10:15:58.860Z,68.90
2018-03-29T10:16:58.892Z,69.73
2018-03-29T10:17:59.178Z,68.01
2018-03-29T10:18:59.176Z,68.11
2018-03-29T10:19:59.482Z,68.59
2018-03-29T10:20:59.512Z,69.35
2018-03-29T10:21:59.768Z,70.10
2018-03-29T10:22:59.833Z,69.29
2018-03-29T10:24:00.135Z,68.05
2018-03-29T10:25:00.189Z,69.00
2018-03-29T10:26:00.474Z,68.59
2018-03-29T10:27:00.509Z,69.44
2018-03-29T10:28:00.733Z,69.82
2018-03-29T10:29:01.718Z,69.06
2018-03-29T10:30:01.097Z,67.95
2018-03-29T10:31:01.252Z,67.03
2018-03-29T10:32:01.509Z,66.08
2018-03-29T10:33:01.535Z,67.41
2018-03-29T10:34:02.401Z,65.32
2018-03-29T10:35:01.889Z,65.45
2018-03-29T10:36:02.124Z,64.94
2018-03-29T10:37:02.206Z,66.56
2018-03-29T10:38:03.533Z,66.81
2018-03-29T10:39:03.407Z,67.32
2018-03-29T10:40:02.746Z,68.52
2018-03-29T10:41:02.876Z,66.94
2018-03-29T10:42:03.140Z,66.81
2018-03-29T10:43:03.132Z,67.57
2018-03-29T10:44:03.442Z,67.63
2018-03-29T10:45:03.458Z,67.25
2018-03-29T10:46:03.712Z,68.01
2018-03-29T10:47:03.822Z,67.19
2018-03-29T10:48:03.955Z,68.15
2018-03-29T10:49:04.078Z,67.86
2018-03-29T10:50:05.230Z,67.38
2018-03-29T10:51:04.364Z,68.05
2018-03-29T10:52:05.473Z,68.24
2018-03-29T10:53:04.692Z,68.62
2018-03-29T10:54:04.896Z,67.63
2018-03-29T10:55:04.964Z,67.92
2018-03-29T10:56:05.463Z,68.49
2018-03-29T10:57:05.298Z,68.21
2018-03-29T10:58:06.816Z,68.87
2018-03-29T10:59:05.689Z,69.02
2018-03-29T11:00:06.928Z,68.74
2018-03-29T11:01:06.098Z,69.41
2018-03-29T11:02:07.250Z,69.12
2018-03-29T11:03:06.399Z,69.88
2018-03-29T11:04:06.648Z,71.59
2018-03-29T11:05:07.394Z,73.15
2018-03-29T11:06:06.968Z,73.78
2018-03-29T11:07:07.176Z,74.92
2018-03-29T11:08:07.279Z,73.78
2018-03-29T11:09:07.376Z,74.35
2018-03-29T11:10:07.622Z,75.49
2018-03-29T11:11:07.855Z,76.25
2018-03-29T11:12:08.078Z,77.49
2018-03-29T11:13:08.081Z,78.16
2018-03-29T11:14:08.424Z,79.01
2018-03-29T11:15:08.397Z,78.72
2018-03-29T11:16:08.688Z,77.01
2018-03-29T11:17:09.029Z,77.30
2018-03-29T11:18:08.987Z,78.44
2018-03-29T11:19:09.132Z,79.11
2018-03-29T11:20:11.410Z,77.49
2018-03-29T11:21:09.370Z,78.72
2018-03-29T11:22:10.742Z,80.57
2018-03-29T11:23:09.813Z,80.00
2018-03-29T11:24:11.137Z,79.52
2018-03-29T11:25:10.937Z,76.86
2018-03-29T11:26:10.413Z,77.43
2018-03-29T11:27:10.591Z,78.10
2018-03-29T11:28:10.818Z,77.81
2018-03-29T11:29:10.889Z,77.62
2018-03-29T11:30:11.189Z,77.62
2018-03-29T11:31:11.328Z,79.09
2018-03-29T11:32:11.587Z,79.75
2018-03-29T11:33:11.922Z,78.80
2018-03-29T11:34:12.199Z,75.28
2018-03-29T11:35:12.086Z,75.28
2018-03-29T11:36:13.342Z,75.32
2018-03-29T11:37:12.322Z,73.61
2018-03-29T11:38:12.518Z,73.32
2018-03-29T11:39:12.668Z,74.18
2018-03-29T11:40:12.966Z,75.23
2018-03-29T11:41:13.915Z,73.85
2018-03-29T11:42:13.361Z,73.57
2018-03-29T11:43:13.940Z,71.76
2018-03-29T11:44:14.440Z,71.47
2018-03-29T11:45:13.777Z,71.95
2018-03-29T11:46:14.046Z,72.81
2018-03-29T11:47:14.173Z,73.47
2018-03-29T11:48:14.510Z,73.38
2018-03-29T11:49:14.514Z,73.00
2018-03-29T11:50:14.902Z,71.91
2018-03-29T11:51:15.422Z,72.39
2018-03-29T11:52:15.164Z,73.25
2018-03-29T11:53:15.267Z,73.06
2018-03-29T11:54:16.350Z,73.06
2018-03-29T11:55:15.926Z,73.02
2018-03-29T11:56:16.831Z,74.54
2018-03-29T11:57:16.413Z,76.35
2018-03-29T11:58:16.031Z,75.21
2018-03-29T11:59:16.066Z,76.73
2018-03-29T12:00:17.376Z,77.87
2018-03-29T12:01:16.394Z,78.63
2018-03-29T12:02:16.669Z,79.91
2018-03-29T12:03:16.672Z,78.57
2018-03-29T12:04:17.027Z,76.96
2018-03-29T12:05:17.097Z,76.67
2018-03-29T12:06:19.454Z,76.75
2018-03-29T12:07:17.477Z,72.71
2018-03-29T12:08:17.656Z,70.89
2018-03-29T12:09:17.859Z,70.79
2018-03-29T12:10:18.115Z,70.04
2018-03-29T12:11:18.235Z,64.53
2018-03-29T12:12:18.408Z,59.61
2018-03-29T12:13:18.621Z,56.60
2018-03-29T12:14:18.912Z,55.44
2018-03-29T12:15:19.821Z,50.59
2018-03-29T12:16:19.848Z,49.96
2018-03-29T12:17:19.362Z,49.36
2018-03-29T12:18:19.707Z,54.82
2018-03-29T12:19:19.831Z,54.28
2018-03-29T12:20:20.103Z,56.13
2018-03-29T12:21:20.175Z,55.82
2018-03-29T12:22:20.436Z,56.87
2018-03-29T12:23:20.549Z,55.08
2018-03-29T12:24:21.770Z,53.93
2018-03-29T12:25:20.908Z,53.73
2018-03-29T12:26:22.430Z,55.93
2018-03-29T12:27:21.218Z,57.11
2018-03-29T12:28:21.785Z,59.25
2018-03-29T12:29:21.557Z,61.07
2018-03-29T12:30:21.809Z,63.07
2018-03-29T12:31:22.087Z,62.11
2018-03-29T12:32:22.156Z,61.10
2018-03-29T12:33:22.219Z,58.90
2018-03-29T12:34:22.501Z,57.87
2018-03-29T12:35:22.638Z,56.98
2018-03-29T12:36:23.420Z,55.42
2018-03-29T12:37:23.032Z,53.22
2018-03-29T12:38:23.251Z,54.63
2018-03-29T12:39:23.402Z,54.06
2018-03-29T12:40:23.655Z,55.49
2018-03-29T12:41:23.762Z,55.99
2018-03-29T12:42:24.050Z,53.89
2018-03-29T12:43:24.024Z,51.50
2018-03-29T12:45:38.929Z,50.93
2018-03-29T12:46:37.087Z,50.24
2018-03-29T12:47:37.291Z,50.69
2018-03-29T12:48:37.342Z,52.88
2018-03-29T12:49:37.672Z,54.19
2018-03-29T12:50:37.677Z,54.77
2018-03-29T12:51:37.989Z,55.91
2018-03-29T12:52:38.007Z,56.04
2018-03-29T12:53:38.384Z,55.62
2018-03-29T12:54:38.571Z,55.43
2018-03-29T12:55:38.733Z,55.31
2018-03-29T12:56:38.707Z,56.48
2018-03-29T12:57:39.011Z,55.82
2018-03-29T12:58:38.995Z,56.26
2018-03-29T12:59:41.223Z,57.76
2018-03-29T13:00:39.370Z,58.43
2018-03-29T13:01:40.556Z,59.28
2018-03-29T13:02:39.696Z,59.00
2018-03-29T13:03:41.735Z,59.26
2018-03-29T13:04:40.084Z,59.54
2018-03-29T13:05:40.245Z,60.59
2018-03-29T13:06:40.219Z,61.83
2018-03-29T13:07:41.229Z,61.80
2018-03-29T13:08:40.756Z,61.83
2018-03-29T13:09:40.776Z,62.97
2018-03-29T13:10:40.899Z,64.12